Time;durP1;ratioP1;P1;durP2;ratioP2;P2;SDS_P1;SDS_P2;PMS_P1;PMS_P2;Temp;Humidity;BMP_temperature;BMP_pressure;BME280_temperature;BME280_humidity;BME280_pressure;Samples;Min_cycle;Max_cycle;Signal;HPM_P1;HPM_P2
2023/10/15 00:00:20;;;;;;;4.50;1.55;;;;;;;15.26;68.04;101619.53;5043977;28;20056;-61
2023/10/15 00:02:49;;;;;;;6.47;1.70;;;;;;;15.47;70.29;101626.13;5037798;28;20748;-68
2023/10/15 00:05:25;;;;;;;5.43;1.77;;;;;;;15.40;70.25;101625.78;5054095;28;20053;-68
2023/10/15 00:07:55;;;;;;;7.40;1.98;;;;;;;13.40;76.89;101624.34;5056301;28;20116;-68
2023/10/15 00:10:25;;;;;;;7.40;1.60;;;;;;;14.11;77.92;101622.66;5040460;28;20048;-68
2023/10/15 00:12:55;;;;;;;7.65;1.48;;;;;;;13.53;74.54;101615.19;5032008;28;20050;-68
2023/10/15 00:15:25;;;;;;;7.05;1.73;;;;;;;14.14;77.82;101620.09;5038053;28;20045;-68
2023/10/15 00:17:54;;;;;;;7.80;1.40;;;;;;;13.45;72.59;101624.25;5043072;28;20067;-68
2023/10/15 00:20:31;;;;;;;11.20;2.00;;;;;;;14.26;74.28;101616.78;5051410;28;20049;-68
2023/10/15 00:23:09;;;;;;;5.50;1.52;;;;;;;14.57;72.02;101606.53;5049232;28;20580;-69
2023/10/15 00:25:38;;;;;;;9.55;2.03;;;;;;;13.60;72.71;101619.50;5023950;28;20064;-61
2023/10/15 00:28:09;;;;;;;7.90;1.52;;;;;;;13.58;79.33;101614.28;5054884;28;20052;-61
2023/10/15 00:30:39;;;;;;;6.93;1.30;;;;;;;14.66;75.02;101610.97;5046027;28;20068;-61
2023/10/15 00:33:16;;;;;;;8.73;1.80;;;;;;;14.78;71.83;101618.72;5043356;28;20496;-68
2023/10/15 00:35:49;;;;;;;8.25;1.98;;;;;;;13.24;74.23;101623.03;5046490;28;20046;-67
2023/10/15 00:38:19;;;;;;;6.63;1.60;;;;;;;13.18;81.09;101634.53;5043956;28;20045;-69
2023/10/15 00:40:51;;;;;;;7.93;2.17;;;;;;;14.10;76.94;101623.81;5049768;28;20055;-61
2023/10/15 00:43:21;;;;;;;5.35;1.50;;;;;;;14.73;73.25;101623.56;5053520;28;20041;-62
2023/10/15 00:45:49;;;;;;;6.32;1.63;;;;;;;15.03;71.84;101623.53;5052793;28;20049;-61
2023/10/15 00:48:33;;;;;;;8.48;1.73;;;;;;;15.33;70.36;101622.66;5007330;28;20401;-61
2023/10/15 00:51:11;;;;;;;10.77;1.80;;;;;;;14.93;67.84;101618.28;5034297;28;20056;-61
2023/10/15 00:53:48;;;;;;;7.88;1.65;;;;;;;14.85;71.02;101626.56;5021765;28;20048;-62
2023/10/15 00:56:22;;;;;;;7.80;1.67;;;;;;;15.19;68.54;101618.34;5038107;28;20052;-68
2023/10/15 01:01:26;;;;;;;6.53;1.50;;;;;;;13.98;72.67;101623.56;5047136;28;20065;-68
2023/10/15 01:03:59;;;;;;;8.55;1.92;;;;;;;14.90;72.83;101629.19;5049067;28;20254;-68
2023/10/15 01:09:10;;;;;;;9.20;1.50;;;;;;;13.38;79.85;101637.69;5048905;28;20048;-68
2023/10/15 01:11:51;;;;;;;6.10;1.75;;;;;;;14.02;74.72;101632.84;5053396;28;20060;-68
2023/10/15 01:17:16;;;;;;;6.22;1.48;;;;;;;14.25;71.83;101638.09;5025706;28;20057;-62
2023/10/15 01:19:45;;;;;;;7.18;1.58;;;;;;;13.24;74.92;101638.81;5033273;28;20042;-61
2023/10/15 01:22:20;;;;;;;5.20;1.35;;;;;;;13.19;74.40;101636.97;5034114;28;20064;-61
2023/10/15 01:24:50;;;;;;;8.27;1.38;;;;;;;12.73;78.66;101633.44;5043623;28;20075;-60
2023/10/15 01:27:27;;;;;;;10.55;2.00;;;;;;;12.96;80.68;101637.97;5030947;28;20060;-59
2023/10/15 01:29:58;;;;;;;5.90;1.42;;;;;;;14.31;75.72;101628.53;5043098;28;20112;-61
2023/10/15 01:32:26;;;;;;;6.60;1.50;;;;;;;14.89;71.90;101624.78;5017596;28;20048;-62
2023/10/15 01:34:55;;;;;;;6.43;1.90;;;;;;;14.72;70.11;101614.44;5035692;28;20053;-62
2023/10/15 01:39:52;;;;;;;9.63;1.58;;;;;;;13.94;72.17;101615.06;5054626;28;20080;-61
2023/10/15 01:42:32;;;;;;;5.05;1.20;;;;;;;14.04;74.89;101620.34;5006658;28;20048;-62
2023/10/15 01:48:04;;;;;;;5.30;1.88;;;;;;;14.89;70.26;101614.50;5022619;28;20056;-69
2023/10/15 01:51:04;;;;;;;5.10;1.27;;;;;;;15.04;70.36;101613.25;5021101;28;20409;-68
2023/10/15 01:53:23;;;;;;;4.25;1.20;;;;;;;15.35;68.85;101606.50;5029993;28;20052;-68
2023/10/15 01:55:59;;;;;;;7.07;1.52;;;;;;;15.30;67.77;101600.25;5044622;28;20049;-68
2023/10/15 01:58:33;;;;;;;4.03;1.45;;;;;;;15.32;67.90;101601.59;5010066;28;20064;-69
2023/10/15 02:01:09;;;;;;;3.72;1.20;;;;;;;15.48;68.08;101604.75;5053089;28;20048;-70
2023/10/15 02:03:37;;;;;;;6.93;1.70;;;;;;;15.53;67.48;101612.91;5032268;28;20049;-68
2023/10/15 02:06:06;;;;;;;4.55;1.33;;;;;;;15.23;66.23;101617.41;5046348;28;20041;-69
2023/10/15 02:08:36;;;;;;;7.80;1.73;;;;;;;14.72;69.97;101628.28;5039093;28;20049;-69
2023/10/15 02:11:21;;;;;;;7.93;1.92;;;;;;;14.94;69.84;101619.91;5021493;28;20412;-69
2023/10/15 02:13:50;;;;;;;6.07;1.65;;;;;;;15.24;69.09;101632.91;5017895;28;20060;-62
2023/10/15 02:16:29;;;;;;;5.95;1.60;;;;;;;14.50;71.13;101639.44;5019995;28;20706;-61
2023/10/15 02:18:58;;;;;;;8.15;1.63;;;;;;;13.00;71.32;101655.59;5044090;28;20053;-61
2023/10/15 02:21:31;;;;;;;6.70;1.40;;;;;;;12.74;76.82;101643.38;5020371;28;20045;-62
2023/10/15 02:24:08;;;;;;;5.00;1.50;;;;;;;13.60;74.37;101642.44;5043818;28;20068;-62
2023/10/15 02:26:36;;;;;;;8.38;1.48;;;;;;;14.24;74.29;101641.19;5025215;28;20063;-61
2023/10/15 02:29:41;;;;;;;7.60;1.23;;;;;;;13.97;74.40;101641.28;5015358;28;20053;-63
2023/10/15 02:32:43;;;;;;;6.47;1.50;;;;;;;13.23;69.90;101643.50;5040544;28;20417;-62
2023/10/15 02:34:45;;;;;;;5.30;1.77;;;;;;;13.99;75.61;101637.09;4993602;28;20512;-62
2023/10/15 02:37:17;;;;;;;8.15;1.52;;;;;;;14.03;72.86;101638.13;5043516;28;20060;-61
2023/10/15 02:39:51;;;;;;;7.50;1.77;;;;;;;14.33;69.81;101644.88;5035990;28;20045;-61
2023/10/15 02:42:20;;;;;;;5.60;1.60;;;;;;;14.50;72.02;101642.22;5053285;28;20045;-69
2023/10/15 02:44:53;;;;;;;9.02;1.88;;;;;;;14.58;71.44;101633.94;5048830;28;20412;-68
2023/10/15 02:47:42;;;;;;;9.50;1.63;;;;;;;13.96;73.56;101636.91;5040392;28;20412;-69
2023/10/15 02:50:17;;;;;;;5.85;1.75;;;;;;;14.38;70.91;101636.44;5023633;28;20057;-70
2023/10/15 02:52:45;;;;;;;6.53;1.83;;;;;;;14.59;71.34;101635.56;5046882;28;20045;-68
2023/10/15 02:55:26;;;;;;;6.22;1.70;;;;;;;14.88;68.35;101643.38;5036442;28;20061;-69
2023/10/15 02:58:00;;;;;;;8.82;2.08;;;;;;;14.83;69.27;101645.47;5049370;28;20056;-69
2023/10/15 03:00:28;;;;;;;5.40;1.70;;;;;;;14.75;69.23;101649.03;5037538;28;20049;-69
2023/10/15 03:02:57;;;;;;;5.63;1.60;;;;;;;14.43;70.98;101652.94;5029866;28;20055;-69
2023/10/15 03:05:30;;;;;;;5.18;1.50;;;;;;;13.68;69.17;101661.09;5013283;28;20057;-69
2023/10/15 03:08:00;;;;;;;6.28;1.60;;;;;;;13.89;73.83;101656.72;5055403;28;20056;-68
2023/10/15 03:10:55;;;;;;;6.07;1.52;;;;;;;14.31;70.06;101659.03;5023076;28;20060;-69
2023/10/15 03:13:24;;;;;;;8.07;1.75;;;;;;;13.93;71.53;101663.25;5045381;28;20400;-68
2023/10/15 03:15:52;;;;;;;7.03;1.52;;;;;;;12.66;72.44;101668.94;5026798;28;20045;-69
2023/10/15 03:18:23;;;;;;;9.50;1.60;;;;;;;12.62;79.03;101669.88;5047732;28;20053;-62
2023/10/15 03:21:09;;;;;;;7.07;1.65;;;;;;;12.41;75.15;101666.66;5030804;28;20061;-61
2023/10/15 03:23:39;;;;;;;5.72;1.27;;;;;;;12.34;77.31;101675.31;5039150;28;20049;-68
2023/10/15 03:26:09;;;;;;;7.28;1.45;;;;;;;13.19;76.37;101672.94;5048084;28;20064;-62
2023/10/15 03:28:44;;;;;;;7.63;1.77;;;;;;;12.42;75.94;101671.88;5045849;28;20045;-61
2023/10/15 03:31:14;;;;;;;7.35;1.35;;;;;;;12.58;84.19;101677.97;5053850;28;20048;-61
2023/10/15 03:33:59;;;;;;;6.97;1.75;;;;;;;13.34;78.21;101672.63;5037888;28;20053;-62
2023/10/15 03:36:26;;;;;;;6.03;1.67;;;;;;;13.24;76.52;101672.84;5024955;28;20148;-62
2023/10/15 03:38:57;;;;;;;7.18;1.67;;;;;;;13.35;76.96;101677.00;5032169;28;20053;-68
2023/10/15 03:41:29;;;;;;;7.43;1.40;;;;;;;13.57;75.07;101671.56;5042253;28;20052;-68
2023/10/15 03:44:03;;;;;;;4.78;1.40;;;;;;;14.13;74.30;101661.97;5051887;28;20060;-68
2023/10/15 03:46:34;;;;;;;6.72;1.60;;;;;;;13.89;75.45;101666.97;5025223;28;20057;-68
2023/10/15 03:49:07;;;;;;;4.47;1.33;;;;;;;13.93;71.69;101660.50;5018870;28;20042;-68
2023/10/15 03:51:41;;;;;;;5.65;1.67;;;;;;;13.99;73.96;101662.03;5035647;28;20053;-68
2023/10/15 03:54:08;;;;;;;5.28;1.50;;;;;;;14.32;73.02;101659.84;5035124;28;20040;-62
2023/10/15 03:56:35;;;;;;;4.28;1.30;;;;;;;14.68;71.63;101662.53;5053787;28;20056;-62
2023/10/15 03:59:03;;;;;;;5.28;1.33;;;;;;;14.85;70.41;101665.41;5054507;28;20060;-61
2023/10/15 04:01:30;;;;;;;3.95;1.23;;;;;;;14.75;69.55;101660.94;5025201;28;20056;-62
2023/10/15 04:04:02;;;;;;;7.43;1.55;;;;;;;14.63;70.21;101667.06;5049394;28;20052;-63
2023/10/15 04:06:29;;;;;;;4.63;1.20;;;;;;;14.95;69.47;101665.94;5031222;28;20051;-62
2023/10/15 04:11:55;;;;;;;7.60;1.65;;;;;;;14.86;69.61;101680.88;5056462;28;20064;-62
2023/10/15 04:14:28;;;;;;;4.03;1.42;;;;;;;15.04;68.82;101689.00;5061083;28;20040;-67
2023/10/15 04:16:57;;;;;;;8.40;2.03;;;;;;;13.36;70.59;101691.69;5053056;28;20052;-68
2023/10/15 04:19:31;;;;;;;5.50;1.90;;;;;;;13.49;76.20;101701.94;5033824;28;20045;-61
2023/10/15 04:22:39;;;;;;;9.02;1.77;;;;;;;14.09;74.81;101685.88;5027601;28;20050;-61
2023/10/15 04:24:55;;;;;;;5.30;1.50;;;;;;;14.36;71.66;101688.59;5027105;28;20057;-62
2023/10/15 04:27:26;;;;;;;4.93;1.55;;;;;;;15.02;69.81;101690.44;5052440;28;20045;-61
2023/10/15 04:29:55;;;;;;;5.70;1.60;;;;;;;15.02;69.26;101696.81;5038234;28;20060;-61
2023/10/15 04:32:28;;;;;;;5.45;1.30;;;;;;;15.29;68.10;101696.59;5036081;28;20041;-62
2023/10/15 04:35:11;;;;;;;5.70;1.50;;;;;;;14.49;68.82;101702.38;5055140;28;20048;-62
2023/10/15 04:37:38;;;;;;;6.43;1.45;;;;;;;14.70;70.12;101699.91;5036250;28;20060;-62
2023/10/15 04:40:06;;;;;;;5.13;1.30;;;;;;;14.81;69.50;101706.00;5037350;28;20041;-62
2023/10/15 04:42:51;;;;;;;4.28;1.50;;;;;;;14.97;69.22;101721.09;5055113;28;20053;-61
2023/10/15 04:45:41;;;;;;;4.40;1.48;;;;;;;14.29;69.75;101716.75;5012495;28;20049;-68
2023/10/15 04:48:14;;;;;;;5.45;1.70;;;;;;;13.47;73.45;101724.38;5017208;28;20052;-68
2023/10/15 04:50:43;;;;;;;6.63;1.95;;;;;;;12.07;73.78;101740.66;5020396;28;20726;-69
2023/10/15 04:53:23;;;;;;;;;;;;;;;11.43;79.48;101741.22;5025737;28;20083;-69
2023/10/15 04:55:54;;;;;;;;;;;;;;;10.88;84.08;101742.63;5042954;28;19928;-69
2023/10/15 04:58:27;;;;;;;7.38;1.95;;;;;;;10.71;84.83;101745.00;5054675;28;19927;-63
2023/10/15 05:00:55;;;;;;;7.57;1.95;;;;;;;11.33;84.62;101739.41;5052841;28;20059;-61
2023/10/15 05:03:22;;;;;;;7.28;1.60;;;;;;;11.22;82.69;101745.31;5034616;28;20500;-69
2023/10/15 05:05:51;;;;;;;21.30;2.22;;;;;;;11.64;85.90;101728.00;5043805;28;20515;-62
2023/10/15 05:08:18;;;;;;;7.75;2.10;;;;;;;11.95;79.96;101732.84;5054405;28;20052;-62
2023/10/15 05:10:50;;;;;;;5.82;1.48;;;;;;;12.71;83.50;101729.66;5023518;28;20052;-69
2023/10/15 05:13:18;;;;;;;6.78;1.95;;;;;;;12.39;79.88;101730.50;5053116;28;20083;-69
2023/10/15 05:15:48;;;;;;;6.10;1.80;;;;;;;12.29;82.48;101740.91;5054895;28;20521;-69
2023/10/15 05:18:15;;;;;;;;;;;;;;;12.39;79.47;101741.56;5033883;28;20049;-68
2023/10/15 05:20:43;;;;;;;8.55;1.65;;;;;;;12.48;83.80;101731.44;5047802;28;19924;-68
2023/10/15 05:23:11;;;;;;;5.10;1.35;;;;;;;12.94;79.62;101722.34;5043446;28;20071;-69
2023/10/15 05:25:39;;;;;;;7.15;1.77;;;;;;;12.42;78.01;101727.13;5033226;28;20052;-69
2023/10/15 05:28:08;;;;;;;8.00;1.90;;;;;;;12.50;80.10;101728.38;5045129;28;20057;-68
2023/10/15 05:30:37;;;;;;;5.85;1.90;;;;;;;12.80;79.19;101719.56;5054528;28;20048;-70
2023/10/15 05:33:07;;;;;;;6.72;1.70;;;;;;;13.60;77.77;101719.94;5036939;28;20071;-70
2023/10/15 05:35:37;;;;;;;4.55;1.33;;;;;;;14.24;73.86;101718.78;5023360;28;20049;-69
2023/10/15 05:38:08;;;;;;;4.85;1.38;;;;;;;14.62;72.26;101717.31;5032897;28;20053;-61
2023/10/15 05:40:37;;;;;;;4.28;1.27;;;;;;;14.57;71.83;101717.44;5050273;28;20044;-62
2023/10/15 05:43:04;;;;;;;8.48;1.80;;;;;;;13.54;69.12;101716.50;5047200;28;20072;-62
2023/10/15 05:45:32;;;;;;;4.70;1.67;;;;;;;12.23;75.36;101729.09;5053374;28;20056;-62
2023/10/15 05:48:00;;;;;;;7.43;1.88;;;;;;;12.77;79.95;101725.72;5038796;28;20046;-62
2023/10/15 05:50:28;;;;;;;6.65;2.00;;;;;;;13.38;76.86;101720.69;5042122;28;20071;-62
2023/10/15 05:52:56;;;;;;;7.50;1.60;;;;;;;13.10;72.85;101732.88;5035430;28;20052;-62
2023/10/15 05:55:23;;;;;;;8.98;1.98;;;;;;;12.20;79.18;101732.44;5052881;28;20511;-63
2023/10/15 05:57:51;;;;;;;7.07;2.03;;;;;;;12.94;79.90;101731.47;5033120;28;20064;-63
2023/10/15 06:00:18;;;;;;;6.15;1.90;;;;;;;12.29;78.86;101743.66;5033320;28;20453;-61
2023/10/15 06:02:50;;;;;;;6.78;1.88;;;;;;;12.16;82.20;101742.47;5032129;28;20049;-61
2023/10/15 06:05:18;;;;;;;4.28;1.45;;;;;;;12.99;79.03;101736.91;5031462;28;20053;-62
2023/10/15 06:07:46;;;;;;;5.35;1.98;;;;;;;11.77;78.10;101755.72;5046745;28;20045;-61
2023/10/15 06:10:13;;;;;;;5.85;1.90;;;;;;;11.26;84.50;101757.44;5047994;28;20064;-61
2023/10/15 06:12:41;;;;;;;9.65;1.88;;;;;;;11.43;85.92;101745.91;5050573;28;20072;-62
2023/10/15 06:15:09;;;;;;;7.93;1.75;;;;;;;10.85;84.40;101754.25;5046733;28;20062;-69
2023/10/15 06:17:36;;;;;;;6.43;2.00;;;;;;;11.58;82.91;101754.00;5041991;28;20064;-69
2023/10/15 06:20:13;;;;;;;7.20;2.15;;;;;;;11.21;88.06;101765.72;5056275;28;20045;-68
2023/10/15 06:22:42;;;;;;;7.85;2.03;;;;;;;10.29;88.12;101760.53;5018128;28;20488;-69
2023/10/15 06:25:12;;;;;;;7.03;1.98;;;;;;;9.96;90.06;101768.38;5031698;28;20060;-71
2023/10/15 06:27:40;;;;;;;8.25;2.38;;;;;;;10.35;89.04;101767.63;5042499;28;20057;-69
2023/10/15 06:30:16;;;;;;;6.47;2.15;;;;;;;10.30;89.34;101771.25;5012119;28;20045;-70
2023/10/15 06:32:50;;;;;;;6.68;2.15;;;;;;;11.42;93.51;101777.38;5033918;28;20049;-69
2023/10/15 06:35:20;;;;;;;6.00;2.10;;;;;;;10.10;91.83;101782.38;5034725;28;20033;-69
2023/10/15 06:37:49;;;;;;;5.85;1.80;;;;;;;10.94;96.34;101782.00;5052645;28;20057;-69
2023/10/15 06:40:16;;;;;;;7.03;2.22;;;;;;;10.62;90.15;101785.31;5021893;28;20057;-68
2023/10/15 06:42:52;;;;;;;9.27;2.15;;;;;;;10.59;89.40;101787.81;5011668;28;1129181;-68
2023/10/15 06:45:20;;;;;;;7.85;1.98;;;;;;;11.36;92.59;101782.13;5051084;28;20496;-69
2023/10/15 06:47:51;;;;;;;6.03;1.67;;;;;;;12.77;85.63;101780.16;5041465;28;20041;-70
2023/10/15 06:50:24;;;;;;;7.10;2.38;;;;;;;12.22;82.40;101782.69;5024609;28;20049;-70
2023/10/15 06:52:54;;;;;;;7.55;2.30;;;;;;;11.85;84.48;101790.13;5034345;28;20052;-69
2023/10/15 06:55:22;;;;;;;7.55;2.03;;;;;;;12.31;85.01;101789.19;5036945;28;20063;-70
2023/10/15 06:57:50;;;;;;;9.25;2.85;;;;;;;10.76;86.95;101790.97;5013598;28;20057;-69
2023/10/15 07:00:24;;;;;;;6.43;2.40;;;;;;;11.45;83.73;101801.63;5046000;28;20044;-69
2023/10/15 07:02:54;;;;;;;6.57;2.08;;;;;;;11.77;81.60;101810.13;5040267;28;20053;-69
2023/10/15 07:05:28;;;;;;;18.42;3.05;;;;;;;11.83;86.67;101808.91;5031970;28;20049;-70
2023/10/15 07:07:58;;;;;;;5.85;2.33;;;;;;;11.23;89.91;101818.66;5051718;28;20037;-70
2023/10/15 07:10:27;;;;;;;5.97;2.30;;;;;;;11.69;86.82;101819.03;5044888;28;20053;-69
2023/10/15 07:12:55;;;;;;;7.97;2.13;;;;;;;11.97;81.58;101823.66;5028496;28;20066;-69
2023/10/15 07:15:24;;;;;;;6.35;2.15;;;;;;;11.51;86.29;101826.09;5047389;28;20511;-69
2023/10/15 07:17:52;;;;;;;6.82;2.40;;;;;;;10.99;86.36;101829.66;5053066;28;20057;-69
2023/10/15 07:20:26;;;;;;;5.50;1.92;;;;;;;11.01;89.17;101827.44;5053621;28;20053;-69
2023/10/15 07:23:00;;;;;;;7.55;2.53;;;;;;;11.36;85.74;101829.03;5031760;28;20060;-69
2023/10/15 07:25:27;;;;;;;9.82;2.42;;;;;;;12.01;83.68;101825.50;5029486;28;20040;-69
2023/10/15 07:27:56;;;;;;;6.72;2.33;;;;;;;13.28;80.37;101823.28;5035321;28;20053;-69
2023/10/15 07:30:25;;;;;;;9.05;2.50;;;;;;;11.81;78.43;101825.78;5027495;28;20060;-69
2023/10/15 07:32:57;;;;;;;7.82;2.35;;;;;;;11.70;81.21;101827.00;5050609;28;20051;-71
2023/10/15 07:35:29;;;;;;;5.20;2.28;;;;;;;11.07;85.48;101845.56;5053401;28;20408;-69
2023/10/15 07:37:57;;;;;;;9.20;2.58;;;;;;;10.74;83.48;101831.81;5056597;28;20049;-69
2023/10/15 07:40:26;;;;;;;11.48;2.88;;;;;;;10.60;84.87;101841.81;5056844;28;20045;-69
2023/10/15 07:42:58;;;;;;;14.73;3.35;;;;;;;11.06;85.43;101843.94;5053996;28;20053;-70
2023/10/15 07:45:28;;;;;;;7.35;2.10;;;;;;;12.09;95.99;101849.72;5056519;28;20045;-70
2023/10/15 07:47:59;;;;;;;6.53;2.33;;;;;;;11.72;83.81;101844.09;5035398;28;20052;-69
2023/10/15 07:50:28;;;;;;;10.82;2.60;;;;;;;11.46;81.93;101848.22;5036363;28;20054;-70
2023/10/15 07:52:56;;;;;;;6.40;2.33;;;;;;;10.63;83.03;101853.09;5042213;28;20045;-61
2023/10/15 07:55:23;;;;;;;8.55;2.17;;;;;;;10.81;84.12;101855.16;5050233;28;20056;-62
2023/10/15 07:57:51;;;;;;;7.47;2.10;;;;;;;11.24;87.06;101862.50;5056157;28;20049;-61
2023/10/15 08:00:30;;;;;;;8.32;2.85;;;;;;;10.71;82.87;101859.91;5053733;28;20045;-61
2023/10/15 08:02:58;;;;;;;6.67;2.30;;;;;;;10.33;85.07;101867.06;5033020;28;20071;-61
2023/10/15 08:05:28;;;;;;;6.47;2.50;;;;;;;11.20;88.33;101861.44;5055750;28;20056;-62
2023/10/15 08:07:57;;;;;;;8.43;2.55;;;;;;;10.61;83.36;101865.50;5049930;28;20496;-62
2023/10/15 08:10:31;;;;;;;7.75;2.50;;;;;;;10.55;83.06;101870.22;5044485;28;20061;-60
2023/10/15 08:13:00;;;;;;;5.82;1.90;;;;;;;10.53;84.48;101860.59;5052727;28;20052;-61
2023/10/15 08:15:27;;;;;;;8.75;2.28;;;;;;;10.68;83.35;101857.75;5055568;28;20056;-62
2023/10/15 08:17:57;;;;;;;8.90;2.20;;;;;;;10.30;84.36;101864.88;5056874;28;20059;-63
2023/10/15 08:20:24;;;;;;;8.27;2.78;;;;;;;10.32;85.02;101859.06;5050460;28;20049;-62
2023/10/15 08:22:52;;;;;;;9.68;2.00;;;;;;;10.28;84.31;101869.00;5053131;28;20048;-62
2023/10/15 08:25:22;;;;;;;6.75;2.00;;;;;;;10.39;84.77;101878.88;5030623;28;20049;-62
2023/10/15 08:28:21;;;;;;;6.20;2.20;;;;;;;10.70;82.79;101870.13;5018480;28;20488;-62
2023/10/15 08:30:53;;;;;;;5.43;1.90;;;;;;;10.85;81.37;101880.22;5034248;28;20048;-62
2023/10/15 08:33:20;;;;;;;8.88;2.28;;;;;;;11.38;81.33;101887.50;5027770;28;20052;-63
2023/10/15 08:35:49;;;;;;;6.30;1.83;;;;;;;10.98;79.66;101883.13;5050715;28;20033;-61
2023/10/15 08:38:16;;;;;;;8.35;1.80;;;;;;;11.46;80.56;101880.50;5052024;28;20060;-63
2023/10/15 08:40:45;;;;;;;6.93;3.20;;;;;;;12.94;76.94;101875.28;5034901;28;20096;-61
2023/10/15 08:43:21;;;;;;;9.57;2.70;;;;;;;12.87;71.46;101876.78;5032298;28;20058;-60
2023/10/15 08:45:49;;;;;;;9.40;1.85;;;;;;;11.90;71.84;101890.28;5027586;28;20417;-60
2023/10/15 08:48:18;;;;;;;4.88;1.35;;;;;;;11.33;75.47;101888.34;5025109;28;20611;-60
2023/10/15 08:50:46;;;;;;;7.85;1.80;;;;;;;11.22;74.64;101888.72;5042464;28;20056;-59
2023/10/15 08:53:15;;;;;;;7.35;1.70;;;;;;;10.95;74.43;101899.41;5052287;28;20569;-60
2023/10/15 08:55:42;;;;;;;9.23;1.92;;;;;;;10.97;75.54;101891.69;5042592;28;20056;-61
2023/10/15 08:58:09;;;;;;;8.57;1.63;;;;;;;11.15;75.06;101897.34;5048850;28;20045;-60
2023/10/15 09:00:39;;;;;;;9.43;1.50;;;;;;;11.34;72.07;101902.97;5034054;28;20048;-61
2023/10/15 09:03:07;;;;;;;7.45;1.80;;;;;;;11.44;72.58;101904.81;5050149;28;20361;-59
2023/10/15 09:05:37;;;;;;;7.10;1.52;;;;;;;11.39;74.22;101902.91;5045433;28;20041;-68
2023/10/15 09:08:08;;;;;;;7.38;1.60;;;;;;;11.17;73.51;101906.16;5049134;28;20048;-68
2023/10/15 09:10:40;;;;;;;10.63;1.75;;;;;;;11.54;73.81;101908.28;5042430;28;20060;-68
2023/10/15 09:13:15;;;;;;;6.40;1.73;;;;;;;11.26;74.34;101912.69;5053305;28;20048;-69
2023/10/15 09:15:46;;;;;;;9.30;2.45;;;;;;;11.30;75.28;101908.25;5039719;28;20053;-69
2023/10/15 09:18:17;;;;;;;6.93;2.20;;;;;;;11.29;75.81;101908.53;5052726;28;20053;-67
2023/10/15 09:20:47;;;;;;;6.65;1.77;;;;;;;12.36;75.53;101898.81;5036136;28;20072;-69
2023/10/15 09:23:15;;;;;;;8.17;2.77;;;;;;;11.53;74.04;101908.56;5049842;28;20044;-67
2023/10/15 09:25:43;;;;;;;6.13;1.88;;;;;;;11.62;75.35;101910.44;5035080;28;20192;-68
2023/10/15 09:28:11;;;;;;;4.85;1.90;;;;;;;11.51;74.37;101908.88;5037722;28;20057;-68
2023/10/15 09:30:38;;;;;;;9.10;2.45;;;;;;;12.19;78.17;101907.59;5052625;28;20045;-68
2023/10/15 09:33:12;;;;;;;8.68;3.65;;;;;;;12.71;69.82;101912.13;5053544;28;20048;-60
2023/10/15 09:35:41;;;;;;;6.30;2.20;;;;;;;11.95;69.17;101912.31;5036971;28;20547;-69
2023/10/15 09:38:14;;;;;;;9.13;1.98;;;;;;;11.86;69.64;101913.22;5030296;28;20380;-68
2023/10/15 09:40:45;;;;;;;12.07;1.77;;;;;;;11.91;68.78;101922.28;5053936;28;20053;-68
2023/10/15 09:43:13;;;;;;;18.70;9.40;;;;;;;11.77;65.69;101915.00;5029468;28;20057;-70
2023/10/15 09:45:42;;;;;;;7.95;1.63;;;;;;;11.87;65.48;101923.16;5034029;28;20061;-61
2023/10/15 09:48:10;;;;;;;8.43;1.25;;;;;;;11.72;66.09;101910.34;5052871;28;20037;-60
2023/10/15 09:50:38;;;;;;;7.57;1.98;;;;;;;11.71;67.77;101921.69;5024288;28;20057;-62
2023/10/15 09:53:12;;;;;;;8.13;1.60;;;;;;;11.79;64.83;101937.59;5040227;28;20420;-67
2023/10/15 09:55:41;;;;;;;4.13;1.05;;;;;;;11.61;66.34;101917.03;5035619;28;20059;-67
2023/10/15 09:58:10;;;;;;;5.95;1.40;;;;;;;11.81;63.71;101916.88;5053511;28;20041;-68
2023/10/15 10:03:48;;;;;;;4.18;1.27;;;;;;;12.83;65.23;101923.56;5037164;28;20053;-69
2023/10/15 10:06:47;;;;;;;5.85;1.10;;;;;;;12.69;61.74;101922.69;5026477;28;20519;-68
2023/10/15 10:09:53;;;;;;;8.10;1.95;;;;;;;13.08;60.60;101927.91;5047632;28;20651;-71
2023/10/15 10:12:40;;;;;;;4.13;1.15;;;;;;;12.59;58.62;101933.06;5033150;28;20515;-69
2023/10/15 10:15:32;;;;;;;6.22;1.33;;;;;;;12.47;59.62;101939.00;5051921;28;20067;-68
2023/10/15 10:18:00;;;;;;;8.02;1.13;;;;;;;11.84;59.74;101941.13;5034915;28;20041;-67
2023/10/15 10:20:37;;;;;;;5.65;1.75;;;;;;;12.51;63.80;101928.19;5034495;28;20044;-67
2023/10/15 10:23:06;;;;;;;6.78;1.88;;;;;;;12.42;59.31;101948.19;5041672;28;20050;-69
2023/10/15 10:25:36;;;;;;;3.97;1.10;;;;;;;12.27;58.60;101939.28;5014997;28;20052;-69
2023/10/15 10:28:09;;;;;;;3.50;1.08;;;;;;;13.21;63.94;101933.53;5055646;28;20049;-68
2023/10/15 10:31:00;;;;;;;5.95;1.40;;;;;;;13.64;64.89;101939.69;5029554;28;20057;-67
2023/10/15 10:34:01;;;;;;;5.75;1.30;;;;;;;13.95;55.51;101948.25;5031582;28;20049;-67
2023/10/15 10:36:30;;;;;;;6.57;1.52;;;;;;;13.05;57.19;101937.66;5039443;28;20049;-69
2023/10/15 10:39:13;;;;;;;4.43;1.23;;;;;;;12.95;57.68;101940.56;5034418;28;20065;-68
2023/10/15 10:41:43;;;;;;;7.00;1.50;;;;;;;13.07;55.81;101946.47;5052397;28;20056;-68
2023/10/15 10:44:30;;;;;;;5.47;1.17;;;;;;;12.74;55.23;101946.66;5044767;28;20072;-68
2023/10/15 10:46:58;;;;;;;6.93;1.42;;;;;;;12.65;55.62;101945.69;5044604;28;20056;-69
2023/10/15 10:49:40;;;;;;;6.15;1.02;;;;;;;12.97;61.03;101948.53;5026607;28;20057;-67
2023/10/15 10:52:16;;;;;;;5.93;2.72;;;;;;;12.48;56.22;101937.06;5035285;28;20049;-68
2023/10/15 10:54:47;;;;;;;17.05;5.82;;;;;;;12.56;56.54;101933.63;5025613;28;20049;-68
2023/10/15 10:57:18;;;;;;;5.60;1.50;;;;;;;12.71;56.77;101944.50;5052876;28;20063;-70
2023/10/15 10:59:45;;;;;;;4.85;1.20;;;;;;;12.22;53.91;101945.66;5052586;28;20574;-69
2023/10/15 11:02:15;;;;;;;8.50;2.50;;;;;;;12.45;54.82;101936.53;5049396;28;20047;-68
2023/10/15 11:04:43;;;;;;;3.85;1.08;;;;;;;12.13;53.51;101933.63;5052780;28;20056;-68
2023/10/15 11:07:11;;;;;;;3.88;1.08;;;;;;;12.61;62.21;101944.63;5053823;28;20432;-68
2023/10/15 11:09:39;;;;;;;8.10;1.17;;;;;;;12.79;54.75;101939.13;5049576;28;20064;-69
2023/10/15 11:12:09;;;;;;;5.55;0.93;;;;;;;12.79;53.41;101941.88;5050298;28;20060;-67
2023/10/15 11:14:37;;;;;;;5.68;1.23;;;;;;;12.84;59.34;101940.97;5056875;28;20044;-68
2023/10/15 11:17:06;;;;;;;7.97;1.27;;;;;;;13.58;60.37;101944.50;5058853;28;20048;-69
2023/10/15 11:19:33;;;;;;;4.13;1.08;;;;;;;13.09;52.67;101938.69;5055740;28;20044;-69
2023/10/15 11:22:01;;;;;;;5.43;1.00;;;;;;;12.38;52.74;101949.06;5037373;28;20060;-69
2023/10/15 11:24:33;;;;;;;4.78;0.73;;;;;;;12.34;52.65;101945.25;5034478;28;20037;-68
2023/10/15 11:27:01;;;;;;;6.65;1.45;;;;;;;12.23;53.57;101930.75;5048413;28;21386;-69
2023/10/15 11:29:29;;;;;;;4.05;1.10;;;;;;;12.66;61.20;101928.00;5014211;28;20049;-69
2023/10/15 11:32:00;;;;;;;5.60;1.48;;;;;;;13.10;53.06;101936.75;5036310;28;20044;-69
2023/10/15 11:34:28;;;;;;;5.72;1.40;;;;;;;12.53;52.59;101935.06;5033966;28;20075;-69
2023/10/15 11:36:56;;;;;;;7.65;1.50;;;;;;;12.80;52.09;101929.69;5021258;28;20040;-70
2023/10/15 11:39:38;;;;;;;3.30;0.98;;;;;;;12.49;52.40;101925.72;5032677;28;20057;-69
2023/10/15 11:42:07;;;;;;;6.22;1.30;;;;;;;13.00;59.49;101923.88;5002385;28;20056;-62
2023/10/15 11:44:42;;;;;;;5.50;1.38;;;;;;;13.15;52.96;101923.66;5055816;28;20057;-68
2023/10/15 11:47:24;;;;;;;3.97;1.05;;;;;;;13.55;53.00;101922.97;5034979;28;20725;-69
2023/10/15 11:49:52;;;;;;;3.90;1.10;;;;;;;13.45;59.76;101923.16;5048710;28;20060;-70
2023/10/15 11:52:21;;;;;;;5.35;1.25;;;;;;;13.48;53.47;101922.53;5034646;28;20051;-68
2023/10/15 11:54:50;;;;;;;4.35;1.25;;;;;;;14.16;55.11;101913.47;5049576;28;20068;-68
2023/10/15 11:57:23;;;;;;;5.55;1.80;;;;;;;13.41;56.52;101921.28;5052621;28;20040;-69
2023/10/15 11:59:52;;;;;;;5.90;1.60;;;;;;;13.80;63.43;101907.84;5045875;28;20056;-62
2023/10/15 12:02:24;;;;;;;5.03;1.02;;;;;;;13.37;53.13;101910.00;5034047;28;20405;-61
2023/10/15 12:04:52;;;;;;;5.93;1.80;;;;;;;14.04;65.50;101905.69;5045988;28;20045;-60
2023/10/15 12:07:22;;;;;;;3.22;0.88;;;;;;;13.33;49.96;101914.50;5047144;28;20120;-61